createdAt,value
2019-03-24T00:00:56.657Z,40.90
2019-03-24T00:03:29.669Z,40.90
2019-03-24T00:06:02.629Z,40.90
2019-03-24T00:08:35.617Z,41.00
2019-03-24T00:11:08.578Z,40.90
2019-03-24T00:13:41.718Z,40.90
2019-03-24T00:16:15.028Z,40.90
2019-03-24T00:18:48.099Z,40.90
2019-03-24T00:21:21.142Z,40.90
2019-03-24T00:23:54.118Z,40.90
2019-03-24T00:26:27.108Z,40.90
2019-03-24T00:29:00.064Z,40.90
2019-03-24T00:31:33.043Z,41.00
2019-03-24T00:34:06.091Z,40.90
2019-03-24T00:36:39.151Z,41.10
2019-03-24T00:39:12.117Z,41.10
2019-03-24T00:41:45.110Z,41.10
2019-03-24T00:44:18.068Z,41.20
2019-03-24T00:46:51.019Z,41.00
2019-03-24T00:49:23.995Z,41.00
2019-03-24T00:51:56.963Z,41.00
2019-03-24T00:54:29.952Z,41.00
2019-03-24T00:57:03.071Z,41.00
2019-03-24T00:59:36.015Z,41.00
2019-03-24T01:02:08.976Z,41.00
2019-03-24T01:04:42.056Z,41.00
2019-03-24T01:07:15.163Z,41.00
2019-03-24T01:09:49.287Z,41.00
2019-03-24T01:12:23.329Z,41.10
2019-03-24T01:14:56.315Z,41.10
2019-03-24T01:17:29.370Z,41.00
2019-03-24T01:20:02.372Z,41.10
2019-03-24T01:22:35.322Z,41.70
2019-03-24T01:25:08.459Z,41.30
2019-03-24T01:27:42.569Z,41.20
2019-03-24T01:30:15.579Z,41.20
2019-03-24T01:32:48.542Z,41.30
2019-03-24T01:35:21.525Z,41.40
2019-03-24T01:37:54.483Z,41.40
2019-03-24T01:40:27.470Z,41.40
2019-03-24T01:43:00.589Z,41.30
2019-03-24T01:45:33.573Z,41.40
2019-03-24T01:48:06.533Z,41.40
2019-03-24T01:50:39.516Z,41.50
2019-03-24T01:53:12.540Z,41.50
2019-03-24T01:55:45.527Z,41.50
2019-03-24T01:58:18.616Z,41.60
2019-03-24T02:00:51.875Z,41.60
2019-03-24T02:03:24.841Z,41.60
2019-03-24T02:05:57.976Z,41.50
2019-03-24T02:08:30.932Z,41.40
2019-03-24T02:11:03.914Z,41.50
2019-03-24T02:13:36.870Z,41.30
2019-03-24T02:16:09.928Z,41.40
2019-03-24T02:18:42.896Z,41.40
2019-03-24T02:21:15.879Z,41.40
2019-03-24T02:23:48.903Z,41.30
2019-03-24T02:26:21.893Z,41.40
2019-03-24T02:28:56.406Z,41.40
2019-03-24T02:31:29.377Z,41.50
2019-03-24T02:34:02.345Z,41.50
2019-03-24T02:36:35.348Z,41.40
2019-03-24T02:39:09.261Z,41.30
2019-03-24T02:41:42.325Z,41.30
2019-03-24T02:44:15.283Z,41.50
2019-03-24T02:46:48.272Z,41.50
2019-03-24T02:49:21.324Z,41.60
2019-03-24T02:51:54.293Z,41.70
2019-03-24T02:54:27.261Z,41.70
2019-03-24T02:57:00.527Z,41.50
2019-03-24T02:59:33.480Z,41.40
2019-03-24T03:02:06.490Z,41.40
2019-03-24T03:04:39.554Z,41.40
2019-03-24T03:07:12.539Z,41.20
2019-03-24T03:09:45.636Z,40.60
2019-03-24T03:12:19.589Z,41.10
2019-03-24T03:14:52.620Z,41.20
2019-03-24T03:17:25.605Z,41.10
2019-03-24T03:19:58.556Z,41.10
2019-03-24T03:22:31.534Z,41.10
2019-03-24T03:25:08.127Z,41.10
2019-03-24T03:27:41.045Z,41.00
2019-03-24T03:30:14.075Z,41.00
2019-03-24T03:32:47.069Z,41.00
2019-03-24T03:35:20.109Z,40.90
2019-03-24T03:37:53.150Z,40.90
2019-03-24T03:40:26.079Z,40.90
2019-03-24T03:42:59.063Z,41.00
2019-03-24T03:45:32.165Z,40.90
2019-03-24T03:48:05.254Z,40.80
2019-03-24T03:50:38.202Z,40.90
2019-03-24T03:53:11.253Z,40.90
2019-03-24T03:55:44.222Z,40.80
2019-03-24T03:58:17.337Z,40.80
2019-03-24T04:00:50.287Z,40.90
2019-03-24T04:03:23.273Z,40.70
2019-03-24T04:05:56.263Z,40.70
2019-03-24T04:08:29.239Z,40.80
2019-03-24T04:11:02.200Z,40.80
2019-03-24T04:13:35.194Z,40.90
2019-03-24T04:16:08.153Z,40.90
2019-03-24T04:18:41.057Z,40.80
2019-03-24T04:21:14.029Z,40.90
2019-03-24T04:23:47.025Z,40.80
2019-03-24T04:26:20.055Z,40.80
2019-03-24T04:28:54.605Z,40.80
2019-03-24T04:31:27.572Z,40.90
2019-03-24T04:34:00.896Z,40.90
2019-03-24T04:36:33.857Z,40.30
2019-03-24T04:39:07.983Z,40.90
2019-03-24T04:41:40.943Z,40.30
2019-03-24T04:44:13.935Z,40.90
2019-03-24T04:46:46.939Z,41.00
2019-03-24T04:49:19.919Z,41.30
2019-03-24T04:51:52.883Z,41.40
2019-03-24T04:54:25.942Z,41.40
2019-03-24T04:56:58.911Z,41.60
2019-03-24T04:59:31.889Z,41.50
2019-03-24T05:02:04.855Z,41.90
2019-03-24T05:04:37.858Z,41.90
2019-03-24T05:07:11.077Z,42.00
2019-03-24T05:09:44.806Z,42.00
2019-03-24T05:12:17.780Z,41.90
2019-03-24T05:14:50.750Z,41.80
2019-03-24T05:17:27.354Z,41.80
2019-03-24T05:19:58.399Z,41.80
2019-03-24T05:22:31.400Z,41.80
2019-03-24T05:25:04.482Z,41.70
2019-03-24T05:27:37.467Z,41.60
2019-03-24T05:30:10.524Z,41.40
2019-03-24T05:32:43.491Z,41.40
2019-03-24T05:35:16.479Z,41.40
2019-03-24T05:37:49.578Z,41.40
2019-03-24T05:40:22.688Z,41.60
2019-03-24T05:42:55.838Z,41.60
2019-03-24T05:45:28.878Z,41.80
2019-03-24T05:48:01.884Z,41.80
2019-03-24T05:50:34.995Z,41.90
2019-03-24T05:53:08.177Z,42.00
2019-03-24T05:55:41.135Z,42.00
2019-03-24T05:58:14.275Z,41.90
2019-03-24T06:00:47.233Z,41.90
2019-03-24T06:03:20.305Z,42.00
2019-03-24T06:05:53.296Z,42.20
2019-03-24T06:08:26.352Z,42.20
2019-03-24T06:10:59.435Z,42.30
2019-03-24T06:13:32.558Z,42.60
2019-03-24T06:16:05.567Z,42.50
2019-03-24T06:18:38.559Z,42.50
2019-03-24T06:21:11.587Z,42.40
2019-03-24T06:23:44.581Z,42.40
2019-03-24T06:26:17.544Z,42.60
2019-03-24T06:28:50.533Z,42.70
2019-03-24T06:31:23.851Z,42.60
2019-03-24T06:33:57.105Z,42.50
2019-03-24T06:36:30.064Z,42.50
2019-03-24T06:39:03.574Z,42.50
2019-03-24T06:41:36.525Z,42.60
2019-03-24T06:44:09.505Z,42.70
2019-03-24T06:46:42.533Z,42.80
2019-03-24T06:49:15.507Z,42.90
2019-03-24T06:51:48.481Z,43.10
2019-03-24T06:54:21.547Z,43.20
2019-03-24T06:56:54.639Z,43.20
2019-03-24T06:59:27.666Z,43.50
2019-03-24T07:02:00.616Z,43.60
2019-03-24T07:04:33.631Z,43.70
2019-03-24T07:07:06.641Z,43.90
2019-03-24T07:09:39.775Z,44.10
2019-03-24T07:12:12.745Z,43.90
2019-03-24T07:14:45.717Z,44.00
2019-03-24T07:17:18.671Z,43.90
2019-03-24T07:19:51.737Z,44.30
2019-03-24T07:22:24.705Z,44.40
2019-03-24T07:24:57.662Z,44.30
2019-03-24T07:27:31.698Z,44.30
2019-03-24T07:30:05.373Z,44.40
2019-03-24T07:32:38.406Z,44.60
2019-03-24T07:35:11.464Z,44.80
2019-03-24T07:37:44.423Z,44.80
2019-03-24T07:40:17.502Z,44.70
2019-03-24T07:42:50.471Z,44.80
2019-03-24T07:45:23.450Z,45.00
2019-03-24T07:47:56.501Z,45.00
2019-03-24T07:50:30.635Z,45.20
2019-03-24T07:53:03.590Z,45.10
2019-03-24T07:55:36.722Z,45.30
2019-03-24T07:58:10.852Z,45.20
2019-03-24T08:00:43.839Z,45.20
2019-03-24T08:03:16.834Z,45.40
2019-03-24T08:05:49.812Z,45.50
2019-03-24T08:08:22.795Z,45.60
2019-03-24T08:10:55.764Z,45.70
2019-03-24T08:13:28.752Z,45.90
2019-03-24T08:16:02.858Z,45.90
2019-03-24T08:18:36.071Z,45.80
2019-03-24T08:21:09.041Z,45.70
2019-03-24T08:23:42.025Z,45.80
2019-03-24T08:26:15.150Z,45.60
2019-03-24T08:28:48.189Z,45.10
2019-03-24T08:31:21.225Z,45.80
2019-03-24T08:33:54.301Z,45.80
2019-03-24T08:36:28.324Z,45.80
2019-03-24T08:39:01.397Z,45.80
2019-03-24T08:41:35.585Z,45.80
2019-03-24T08:44:08.917Z,45.80
2019-03-24T08:46:44.421Z,45.70
2019-03-24T08:49:17.726Z,45.40
2019-03-24T08:51:51.312Z,45.30
2019-03-24T08:54:24.283Z,45.10
2019-03-24T08:56:57.259Z,44.90
2019-03-24T08:59:30.246Z,44.80
2019-03-24T09:02:03.287Z,44.50
2019-03-24T09:04:36.445Z,44.20
2019-03-24T09:07:09.417Z,44.00
2019-03-24T09:09:42.406Z,43.70
2019-03-24T09:12:15.520Z,43.80
2019-03-24T09:14:48.567Z,43.80
2019-03-24T09:17:21.624Z,43.80
2019-03-24T09:19:54.543Z,43.80
2019-03-24T09:22:27.502Z,43.80
2019-03-24T09:25:00.481Z,43.60
2019-03-24T09:27:33.471Z,43.60
2019-03-24T09:30:10.509Z,43.50
2019-03-24T09:32:43.695Z,43.90
2019-03-24T09:35:16.700Z,43.10
2019-03-24T09:37:49.723Z,43.10
2019-03-24T09:40:29.787Z,43.20
2019-03-24T09:43:02.914Z,44.00
2019-03-24T09:45:35.986Z,43.10
2019-03-24T09:48:08.947Z,43.00
2019-03-24T09:50:41.998Z,43.00
2019-03-24T09:53:14.949Z,43.00
2019-03-24T09:55:47.936Z,42.90
2019-03-24T09:58:20.886Z,42.70
2019-03-24T10:00:53.860Z,42.40
2019-03-24T10:03:26.835Z,42.20
2019-03-24T10:05:59.884Z,42.10
2019-03-24T10:08:32.906Z,41.90
2019-03-24T10:11:05.999Z,41.60
2019-03-24T10:13:39.020Z,41.30
2019-03-24T10:16:11.989Z,41.00
2019-03-24T10:18:44.941Z,40.80
2019-03-24T10:21:17.925Z,40.40
2019-03-24T10:23:50.891Z,39.90
2019-03-24T10:26:24.149Z,39.70
2019-03-24T10:28:57.285Z,39.50
2019-03-24T10:31:30.259Z,39.20
2019-03-24T10:34:03.332Z,38.80
2019-03-24T10:36:36.314Z,38.60
2019-03-24T10:39:09.259Z,38.40
2019-03-24T10:41:42.224Z,38.00
2019-03-24T10:44:15.191Z,37.60
2019-03-24T10:46:48.327Z,37.20
2019-03-24T10:49:25.035Z,36.90
2019-03-24T10:51:56.042Z,36.70
2019-03-24T10:54:29.157Z,36.60
2019-03-24T10:57:02.235Z,36.30
2019-03-24T10:59:35.263Z,36.40
2019-03-24T11:02:08.242Z,36.30
2019-03-24T11:04:41.292Z,36.10
2019-03-24T11:07:14.264Z,36.60
2019-03-24T11:09:47.298Z,36.20
2019-03-24T11:12:21.237Z,36.30
2019-03-24T11:14:54.186Z,36.20
2019-03-24T11:17:27.169Z,36.30
2019-03-24T11:20:00.262Z,36.40
2019-03-24T11:22:33.281Z,36.20
2019-03-24T11:25:08.274Z,36.60
2019-03-24T11:27:41.832Z,36.80
2019-03-24T11:30:15.020Z,36.60
2019-03-24T11:32:49.449Z,36.70
2019-03-24T11:35:22.409Z,36.80
2019-03-24T11:37:55.559Z,36.90
2019-03-24T11:40:28.518Z,37.20
2019-03-24T11:43:01.574Z,37.40
2019-03-24T11:45:35.036Z,37.30
2019-03-24T11:48:08.283Z,37.50
2019-03-24T11:50:41.244Z,37.60
2019-03-24T11:53:14.227Z,37.40
2019-03-24T11:55:47.248Z,37.50
2019-03-24T11:58:20.420Z,37.50
2019-03-24T12:00:53.381Z,37.50
2019-03-24T12:03:26.426Z,37.50
2019-03-24T12:05:59.615Z,37.20
2019-03-24T12:08:32.835Z,37.40
2019-03-24T12:11:05.871Z,37.40
2019-03-24T12:13:38.797Z,37.30
2019-03-24T12:16:11.827Z,37.50
2019-03-24T12:18:44.872Z,37.20
2019-03-24T12:21:18.143Z,37.50
2019-03-24T12:23:51.133Z,37.60
2019-03-24T12:26:30.067Z,37.60
2019-03-24T12:29:04.362Z,37.70
2019-03-24T12:31:37.454Z,37.80
2019-03-24T12:34:10.572Z,37.90
2019-03-24T12:36:45.464Z,38.20
2019-03-24T12:39:18.508Z,38.00
2019-03-24T12:41:51.752Z,38.20
2019-03-24T12:44:24.719Z,38.30
2019-03-24T12:46:58.292Z,38.40
2019-03-24T12:49:31.323Z,38.30
2019-03-24T12:52:04.493Z,38.40
2019-03-24T12:54:37.545Z,38.50
2019-03-24T12:57:10.511Z,38.60
2019-03-24T12:59:43.551Z,38.60
2019-03-24T13:02:16.698Z,38.70
2019-03-24T13:04:49.842Z,38.70
2019-03-24T13:07:22.911Z,39.00
2019-03-24T13:09:55.950Z,38.80
2019-03-24T13:12:28.939Z,39.00
2019-03-24T13:15:03.115Z,39.10
2019-03-24T13:17:36.186Z,39.10
2019-03-24T13:20:19.767Z,39.20
2019-03-24T13:22:44.589Z,39.20
2019-03-24T13:25:17.643Z,39.10
2019-03-24T13:27:50.899Z,39.10
2019-03-24T13:30:23.939Z,39.00
2019-03-24T13:32:57.001Z,39.10
2019-03-24T13:35:29.954Z,39.30
2019-03-24T13:38:03.027Z,39.10
2019-03-24T13:40:36.102Z,39.10
2019-03-24T13:43:09.053Z,39.20
2019-03-24T13:45:42.043Z,39.20
2019-03-24T13:48:15.015Z,39.30
2019-03-24T13:50:48.194Z,39.40
2019-03-24T13:53:21.202Z,39.50
2019-03-24T13:55:54.431Z,39.60
2019-03-24T13:58:27.389Z,39.70
2019-03-24T14:01:00.442Z,39.90
2019-03-24T14:03:33.510Z,39.60
2019-03-24T14:06:06.502Z,39.60
2019-03-24T14:08:39.468Z,39.50
2019-03-24T14:11:12.455Z,39.50
2019-03-24T14:13:45.494Z,39.60
2019-03-24T14:16:18.733Z,39.50
2019-03-24T14:18:51.813Z,39.50
2019-03-24T14:21:24.782Z,40.20
2019-03-24T14:23:58.007Z,39.60
2019-03-24T14:26:30.934Z,39.70
2019-03-24T14:29:03.904Z,39.70
2019-03-24T14:31:36.889Z,39.70
2019-03-24T14:34:10.000Z,39.70
2019-03-24T14:36:43.050Z,39.60
2019-03-24T14:39:16.007Z,39.60
2019-03-24T14:41:48.979Z,39.70
2019-03-24T14:44:22.006Z,39.70
2019-03-24T14:46:54.999Z,39.70
2019-03-24T14:49:28.024Z,39.80
2019-03-24T14:52:01.090Z,39.90
2019-03-24T14:54:34.038Z,39.80
2019-03-24T14:57:07.260Z,39.80
2019-03-24T14:59:40.213Z,39.90
2019-03-24T15:02:13.348Z,39.90
2019-03-24T15:04:46.402Z,40.00
2019-03-24T15:07:19.453Z,40.10
2019-03-24T15:09:52.489Z,40.20
2019-03-24T15:12:25.547Z,40.30
2019-03-24T15:14:58.675Z,40.40
2019-03-24T15:17:31.880Z,40.30
2019-03-24T15:20:05.454Z,40.40
2019-03-24T15:22:38.593Z,40.40
2019-03-24T15:25:11.583Z,40.60
2019-03-24T15:27:44.672Z,40.60
2019-03-24T15:30:17.832Z,40.60
2019-03-24T15:32:53.376Z,40.40
2019-03-24T15:35:25.777Z,40.40
2019-03-24T15:38:08.004Z,40.40
2019-03-24T15:40:33.529Z,40.20
2019-03-24T15:43:06.557Z,40.20
2019-03-24T15:45:39.610Z,40.20
2019-03-24T15:48:12.633Z,40.30
2019-03-24T15:50:45.780Z,40.10
2019-03-24T15:53:18.726Z,40.10
2019-03-24T15:55:51.790Z,40.10
2019-03-24T15:58:25.044Z,39.90
2019-03-24T16:00:58.237Z,39.80
2019-03-24T16:03:31.303Z,39.60
2019-03-24T16:06:04.464Z,39.50
2019-03-24T16:08:37.477Z,39.40
2019-03-24T16:11:10.612Z,39.60
2019-03-24T16:13:43.722Z,39.60
2019-03-24T16:16:16.708Z,39.90
2019-03-24T16:18:49.692Z,39.90
2019-03-24T16:21:27.687Z,39.90
2019-03-24T16:23:57.356Z,39.50
2019-03-24T16:26:30.318Z,39.10
2019-03-24T16:29:03.308Z,38.90
2019-03-24T16:31:36.264Z,39.00
2019-03-24T16:34:09.327Z,38.80
2019-03-24T16:36:42.361Z,39.00
2019-03-24T16:39:15.480Z,38.90
2019-03-24T16:41:48.454Z,39.00
2019-03-24T16:44:21.437Z,39.20
2019-03-24T16:46:54.436Z,39.30
2019-03-24T16:49:27.459Z,39.30
2019-03-24T16:52:00.709Z,39.30
2019-03-24T16:54:33.706Z,39.90
2019-03-24T16:57:06.783Z,39.40
2019-03-24T16:59:39.818Z,39.30
2019-03-24T17:02:12.814Z,39.30
2019-03-24T17:04:45.878Z,39.10
2019-03-24T17:07:19.005Z,39.10
2019-03-24T17:09:52.141Z,39.20
2019-03-24T17:12:25.102Z,39.20
2019-03-24T17:14:58.173Z,39.30
2019-03-24T17:17:31.113Z,39.20
2019-03-24T17:20:06.718Z,39.50
2019-03-24T17:22:39.855Z,39.40
2019-03-24T17:25:12.834Z,39.40
2019-03-24T17:27:46.054Z,39.30
2019-03-24T17:30:19.274Z,39.20
2019-03-24T17:32:52.463Z,39.30
2019-03-24T17:35:25.530Z,39.20
2019-03-24T17:37:58.563Z,39.30
2019-03-24T17:40:31.551Z,39.30
2019-03-24T17:43:04.617Z,39.50
2019-03-24T17:45:37.917Z,39.50
2019-03-24T17:48:10.931Z,39.50
2019-03-24T17:50:44.193Z,39.40
2019-03-24T17:53:17.422Z,40.20
2019-03-24T17:55:50.381Z,39.50
2019-03-24T17:58:23.467Z,39.30
2019-03-24T18:00:57.692Z,39.30
2019-03-24T18:03:30.825Z,39.30
2019-03-24T18:06:04.942Z,39.30
2019-03-24T18:08:38.000Z,39.20
2019-03-24T18:11:10.949Z,39.20
2019-03-24T18:13:43.900Z,39.10
2019-03-24T18:16:18.685Z,39.20
2019-03-24T18:18:51.680Z,39.30
2019-03-24T18:21:24.672Z,39.00
2019-03-24T18:23:57.772Z,39.10
2019-03-24T18:26:30.802Z,39.20
2019-03-24T18:29:03.860Z,39.30
2019-03-24T18:31:36.888Z,39.30
2019-03-24T18:34:09.948Z,39.20
2019-03-24T18:36:42.992Z,39.00
2019-03-24T18:39:15.964Z,39.00
2019-03-24T18:41:49.004Z,39.00
2019-03-24T18:44:21.974Z,39.00
2019-03-24T18:46:55.024Z,39.00
2019-03-24T18:49:29.580Z,39.10
2019-03-24T18:52:02.549Z,38.90
2019-03-24T18:54:35.572Z,39.00
2019-03-24T18:57:08.711Z,39.00
2019-03-24T18:59:41.767Z,39.10
2019-03-24T19:02:14.821Z,39.10
2019-03-24T19:04:47.881Z,39.00
2019-03-24T19:07:21.135Z,39.00
2019-03-24T19:09:54.092Z,39.10
2019-03-24T19:12:27.162Z,39.00
2019-03-24T19:15:00.342Z,39.00
2019-03-24T19:17:33.450Z,39.00
2019-03-24T19:20:07.550Z,39.00
2019-03-24T19:22:40.605Z,39.00
2019-03-24T19:25:13.686Z,39.00
2019-03-24T19:27:46.740Z,39.10
2019-03-24T19:30:21.707Z,39.10
2019-03-24T19:32:54.730Z,39.00
2019-03-24T19:35:27.705Z,39.00
2019-03-24T19:38:00.879Z,39.10
2019-03-24T19:40:34.676Z,39.10
2019-03-24T19:43:07.666Z,39.10
2019-03-24T19:45:40.623Z,39.10
2019-03-24T19:48:13.688Z,39.10
2019-03-24T19:50:46.651Z,39.20
2019-03-24T19:53:19.694Z,39.20
2019-03-24T19:55:52.716Z,39.30
2019-03-24T19:58:25.769Z,39.40
2019-03-24T20:00:58.703Z,39.40
2019-03-24T20:03:31.694Z,39.50
2019-03-24T20:06:04.666Z,39.50
2019-03-24T20:08:37.718Z,39.70
2019-03-24T20:11:10.728Z,39.80
2019-03-24T20:13:43.696Z,39.90
2019-03-24T20:16:16.810Z,40.00
2019-03-24T20:18:49.786Z,39.90
2019-03-24T20:21:22.746Z,39.90
2019-03-24T20:23:55.717Z,40.00
2019-03-24T20:26:28.745Z,40.00
2019-03-24T20:29:01.738Z,40.00
2019-03-24T20:31:35.827Z,40.10
2019-03-24T20:34:08.961Z,40.00
2019-03-24T20:36:42.113Z,40.00
2019-03-24T20:39:15.160Z,40.00
2019-03-24T20:41:48.415Z,40.00
2019-03-24T20:44:21.415Z,40.00
2019-03-24T20:46:54.397Z,39.90
2019-03-24T20:49:27.526Z,39.70
2019-03-24T20:52:00.582Z,39.70
2019-03-24T20:54:33.563Z,39.60
2019-03-24T20:57:06.682Z,39.70
2019-03-24T20:59:39.752Z,39.70
2019-03-24T21:02:12.775Z,39.80
2019-03-24T21:04:45.908Z,39.80
2019-03-24T21:07:18.897Z,39.70
2019-03-24T21:09:52.117Z,39.80
2019-03-24T21:12:25.298Z,39.80
2019-03-24T21:14:58.281Z,39.90
2019-03-24T21:17:31.233Z,40.00
2019-03-24T21:20:04.452Z,40.00
2019-03-24T21:22:37.534Z,40.00
2019-03-24T21:25:10.521Z,40.20
2019-03-24T21:27:43.730Z,40.20
2019-03-24T21:30:16.708Z,39.60
2019-03-24T21:32:51.565Z,40.20
2019-03-24T21:35:24.351Z,40.30
2019-03-24T21:37:57.337Z,40.20
2019-03-24T21:40:30.297Z,40.20
2019-03-24T21:43:06.465Z,40.20
2019-03-24T21:45:39.245Z,40.20
2019-03-24T21:48:13.526Z,40.20
2019-03-24T21:50:46.485Z,40.20
2019-03-24T21:53:19.546Z,40.20
2019-03-24T21:55:52.508Z,40.20
2019-03-24T21:58:25.492Z,40.20
2019-03-24T22:00:58.457Z,40.30
2019-03-24T22:03:31.437Z,40.30
2019-03-24T22:06:04.576Z,40.40
2019-03-24T22:08:37.553Z,40.40
2019-03-24T22:11:10.512Z,40.50
2019-03-24T22:13:43.561Z,40.40
2019-03-24T22:16:16.667Z,40.50
2019-03-24T22:18:49.746Z,40.50
2019-03-24T22:21:22.795Z,40.40
2019-03-24T22:23:55.834Z,40.40
2019-03-24T22:26:28.795Z,40.40
2019-03-24T22:29:01.782Z,40.50
2019-03-24T22:31:34.755Z,40.50
2019-03-24T22:34:07.784Z,40.40
2019-03-24T22:36:40.832Z,40.50
2019-03-24T22:39:13.748Z,40.50
2019-03-24T22:41:46.697Z,40.40
2019-03-24T22:44:19.751Z,40.40
2019-03-24T22:46:52.727Z,40.40
2019-03-24T22:49:25.701Z,40.30
2019-03-24T22:52:06.878Z,40.30
2019-03-24T22:54:33.403Z,40.20
2019-03-24T22:57:06.368Z,40.30
2019-03-24T22:59:39.356Z,40.20
2019-03-24T23:02:12.395Z,40.20
2019-03-24T23:04:45.457Z,40.20
2019-03-24T23:07:18.511Z,40.20
2019-03-24T23:09:51.507Z,40.30
2019-03-24T23:12:26.016Z,40.30
2019-03-24T23:14:58.980Z,40.30
2019-03-24T23:17:31.932Z,40.40
2019-03-24T23:20:05.170Z,40.40
2019-03-24T23:22:38.058Z,40.30
2019-03-24T23:25:10.982Z,40.40
2019-03-24T23:27:43.965Z,40.30
2019-03-24T23:30:16.985Z,40.20
2019-03-24T23:32:50.010Z,40.10
2019-03-24T23:35:23.007Z,40.20
2019-03-24T23:37:56.104Z,40.00
2019-03-24T23:40:29.312Z,40.10
2019-03-24T23:43:02.268Z,40.10
2019-03-24T23:45:35.260Z,40.10
2019-03-24T23:48:08.296Z,40.00
2019-03-24T23:50:41.292Z,40.00
2019-03-24T23:53:14.315Z,39.80
2019-03-24T23:55:47.434Z,39.90
2019-03-24T23:58:20.395Z,40.00
